createdAt,value
2023-03-11T00:00:26.234Z,0.00
2023-03-11T00:01:26.205Z,0.00
2023-03-11T00:02:26.232Z,0.00
2023-03-11T00:03:26.185Z,0.00
2023-03-11T00:04:26.175Z,0.00
2023-03-11T00:05:26.208Z,0.00
2023-03-11T00:06:26.157Z,0.00
2023-03-11T00:07:26.152Z,0.00
2023-03-11T00:08:26.146Z,0.00
2023-03-11T00:09:26.128Z,0.00
2023-03-11T00:10:27.939Z,0.00
2023-03-11T00:11:26.107Z,0.00
2023-03-11T00:12:26.107Z,0.00
2023-03-11T00:13:26.088Z,0.00
2023-03-11T00:14:26.077Z,0.00
2023-03-11T00:15:26.531Z,0.00
2023-03-11T00:16:26.122Z,0.00
2023-03-11T00:17:26.048Z,0.00
2023-03-11T00:18:26.036Z,0.00
2023-03-11T00:19:26.020Z,0.00
2023-03-11T00:20:26.045Z,0.00
2023-03-11T00:21:25.999Z,0.00
2023-03-11T00:22:25.993Z,0.00
2023-03-11T00:23:25.985Z,0.00
2023-03-11T00:24:25.976Z,0.00
2023-03-11T00:25:26.329Z,0.00
2023-03-11T00:26:25.962Z,0.00
2023-03-11T00:27:25.943Z,0.00
2023-03-11T00:28:25.982Z,0.00
2023-03-11T00:29:25.917Z,0.00
2023-03-11T00:30:26.254Z,0.00
2023-03-11T00:31:25.901Z,0.00
2023-03-11T00:32:25.924Z,0.00
2023-03-11T00:33:25.893Z,0.00
2023-03-11T00:34:25.893Z,0.00
2023-03-11T00:35:26.191Z,0.00
2023-03-11T00:36:25.855Z,0.00
2023-03-11T00:37:25.852Z,0.00
2023-03-11T00:38:25.856Z,0.00
2023-03-11T00:39:25.818Z,0.00
2023-03-11T00:40:26.344Z,0.00
2023-03-11T00:41:25.790Z,0.00
2023-03-11T00:42:25.802Z,0.00
2023-03-11T00:43:25.784Z,0.00
2023-03-11T00:44:25.769Z,0.00
2023-03-11T00:45:25.942Z,0.00
2023-03-11T00:46:25.812Z,0.00
2023-03-11T00:47:25.744Z,0.00
2023-03-11T00:48:25.733Z,0.00
2023-03-11T00:49:25.717Z,0.00
2023-03-11T00:50:26.059Z,0.00
2023-03-11T00:51:25.697Z,0.00
2023-03-11T00:52:25.688Z,0.00
2023-03-11T00:53:25.677Z,0.00
2023-03-11T00:54:25.666Z,0.00
2023-03-11T00:55:25.656Z,0.00
2023-03-11T00:56:25.645Z,0.00
2023-03-11T00:57:25.650Z,0.00
2023-03-11T00:58:25.632Z,0.00
2023-03-11T00:59:25.616Z,0.00
2023-03-11T01:00:25.610Z,0.00
2023-03-11T01:01:25.675Z,0.00
2023-03-11T01:02:25.584Z,0.00
2023-03-11T01:03:25.573Z,0.00
2023-03-11T01:04:25.622Z,0.00
2023-03-11T01:05:25.554Z,0.00
2023-03-11T01:06:30.153Z,0.00
2023-03-11T01:07:25.535Z,0.00
2023-03-11T01:08:25.518Z,0.00
2023-03-11T01:09:25.517Z,0.00
2023-03-11T01:10:25.500Z,0.00
2023-03-11T01:11:25.510Z,0.00
2023-03-11T01:12:25.472Z,0.00
2023-03-11T01:13:25.495Z,0.00
2023-03-11T01:14:25.454Z,0.00
2023-03-11T01:15:25.462Z,0.00
2023-03-11T01:16:25.492Z,0.00
2023-03-11T01:17:25.431Z,0.00
2023-03-11T01:18:25.416Z,0.00
2023-03-11T01:19:25.408Z,0.00
2023-03-11T01:20:25.397Z,0.00
2023-03-11T01:21:25.492Z,0.00
2023-03-11T01:22:25.378Z,0.00
2023-03-11T01:23:25.366Z,0.00
2023-03-11T01:24:25.350Z,0.00
2023-03-11T01:25:25.382Z,0.00
2023-03-11T01:26:25.335Z,0.00
2023-03-11T01:27:25.327Z,0.00
2023-03-11T01:28:25.308Z,0.00
2023-03-11T01:29:25.305Z,0.00
2023-03-11T01:30:25.294Z,0.00
2023-03-11T01:31:25.304Z,0.00
2023-03-11T01:32:25.306Z,0.00
2023-03-11T01:33:25.270Z,0.00
2023-03-11T01:34:25.255Z,0.00
2023-03-11T01:35:25.250Z,0.00
2023-03-11T01:36:25.226Z,0.00
2023-03-11T01:37:25.225Z,0.00
2023-03-11T01:38:25.224Z,0.00
2023-03-11T01:39:25.203Z,0.00
2023-03-11T01:40:25.188Z,0.00
2023-03-11T01:41:25.205Z,0.00
2023-03-11T01:42:25.176Z,0.00
2023-03-11T01:43:25.161Z,0.00
2023-03-11T01:44:25.144Z,0.00
2023-03-11T01:45:25.138Z,0.00
2023-03-11T01:46:25.580Z,0.00
2023-03-11T01:47:25.117Z,0.00
2023-03-11T01:48:25.104Z,0.00
2023-03-11T01:49:25.104Z,0.00
2023-03-11T01:50:25.088Z,0.00
2023-03-11T01:51:25.466Z,0.00
2023-03-11T01:52:25.061Z,0.00
2023-03-11T01:53:25.062Z,0.00
2023-03-11T01:54:25.045Z,0.00
2023-03-11T01:55:25.050Z,0.00
2023-03-11T01:56:25.531Z,0.00
2023-03-11T01:57:25.008Z,0.00
2023-03-11T01:58:25.008Z,0.00
2023-03-11T01:59:24.996Z,0.00
2023-03-11T02:00:24.989Z,0.00
2023-03-11T02:01:25.294Z,0.00
2023-03-11T02:02:24.965Z,0.00
2023-03-11T02:03:24.948Z,0.00
2023-03-11T02:04:24.937Z,0.00
2023-03-11T02:05:24.932Z,0.00
2023-03-11T02:06:25.246Z,0.00
2023-03-11T02:07:24.910Z,0.00
2023-03-11T02:08:24.897Z,0.00
2023-03-11T02:09:24.887Z,0.00
2023-03-11T02:10:24.885Z,0.00
2023-03-11T02:11:25.144Z,0.00
2023-03-11T02:12:24.859Z,0.00
2023-03-11T02:13:24.847Z,0.00
2023-03-11T02:14:24.851Z,0.00
2023-03-11T02:15:24.838Z,0.00
2023-03-11T02:16:24.901Z,0.00
2023-03-11T02:17:24.812Z,0.00
2023-03-11T02:18:24.802Z,0.00
2023-03-11T02:19:24.791Z,0.00
2023-03-11T02:20:24.809Z,0.00
2023-03-11T02:21:25.160Z,0.00
2023-03-11T02:22:24.764Z,0.00
2023-03-11T02:23:24.755Z,0.00
2023-03-11T02:24:24.744Z,0.00
2023-03-11T02:25:24.740Z,0.00
2023-03-11T02:26:25.093Z,0.00
2023-03-11T02:27:24.717Z,0.00
2023-03-11T02:28:24.700Z,0.00
2023-03-11T02:29:24.693Z,0.00
2023-03-11T02:30:24.679Z,0.00
2023-03-11T02:31:25.175Z,0.00
2023-03-11T02:32:24.731Z,0.00
2023-03-11T02:33:24.647Z,0.00
2023-03-11T02:34:24.656Z,0.00
2023-03-11T02:35:24.632Z,0.00
2023-03-11T02:36:24.931Z,0.00
2023-03-11T02:37:24.605Z,0.00
2023-03-11T02:38:24.614Z,0.00
2023-03-11T02:39:24.590Z,0.00
2023-03-11T02:40:24.592Z,0.00
2023-03-11T02:41:24.929Z,0.00
2023-03-11T02:42:24.572Z,0.00
2023-03-11T02:43:24.551Z,0.00
2023-03-11T02:44:24.533Z,0.00
2023-03-11T02:45:24.530Z,0.00
2023-03-11T02:46:24.858Z,0.00
2023-03-11T02:47:24.517Z,0.00
2023-03-11T02:48:24.506Z,0.00
2023-03-11T02:49:24.486Z,0.00
2023-03-11T02:50:24.485Z,0.00
2023-03-11T02:51:24.775Z,0.00
2023-03-11T02:52:24.452Z,0.00
2023-03-11T02:53:24.437Z,0.00
2023-03-11T02:54:24.425Z,0.00
2023-03-11T02:55:24.413Z,0.00
2023-03-11T02:56:24.600Z,0.00
2023-03-11T02:57:24.398Z,0.00
2023-03-11T02:58:24.402Z,0.00
2023-03-11T02:59:24.373Z,0.00
2023-03-11T03:00:24.378Z,0.00
2023-03-11T03:01:24.742Z,0.00
2023-03-11T03:02:24.368Z,0.00
2023-03-11T03:03:24.343Z,0.00
2023-03-11T03:04:24.411Z,0.00
2023-03-11T03:05:24.310Z,0.00
2023-03-11T03:06:24.488Z,0.00
2023-03-11T03:07:24.291Z,0.00
2023-03-11T03:08:24.282Z,0.00
2023-03-11T03:09:24.283Z,0.00
2023-03-11T03:10:24.277Z,0.00
2023-03-11T03:11:24.686Z,0.00
2023-03-11T03:12:24.244Z,0.00
2023-03-11T03:13:24.223Z,0.00
2023-03-11T03:14:24.220Z,0.00
2023-03-11T03:15:24.225Z,0.00
2023-03-11T03:16:24.598Z,0.00
2023-03-11T03:17:24.201Z,0.00
2023-03-11T03:18:24.192Z,0.00
2023-03-11T03:19:24.168Z,0.00
2023-03-11T03:20:24.182Z,0.00
2023-03-11T03:21:24.446Z,0.00
2023-03-11T03:22:24.158Z,0.00
2023-03-11T03:23:24.127Z,0.00
2023-03-11T03:24:24.116Z,0.00
2023-03-11T03:25:24.106Z,0.00
2023-03-11T03:26:24.638Z,0.00
2023-03-11T03:27:24.076Z,0.00
2023-03-11T03:28:24.081Z,0.00
2023-03-11T03:29:24.098Z,0.00
2023-03-11T03:30:24.072Z,0.00
2023-03-11T03:31:24.410Z,0.00
2023-03-11T03:32:24.090Z,0.00
2023-03-11T03:33:24.028Z,0.00
2023-03-11T03:34:24.014Z,0.00
2023-03-11T03:35:24.001Z,0.00
2023-03-11T03:36:23.994Z,0.00
2023-03-11T03:37:23.991Z,0.00
2023-03-11T03:38:23.981Z,0.00
2023-03-11T03:39:23.955Z,0.00
2023-03-11T03:40:23.988Z,0.00
2023-03-11T03:41:23.936Z,0.00
2023-03-11T03:42:23.944Z,0.00
2023-03-11T03:43:23.917Z,0.00
2023-03-11T03:44:23.941Z,0.00
2023-03-11T03:45:23.898Z,0.00
2023-03-11T03:46:23.968Z,0.00
2023-03-11T03:47:23.898Z,0.00
2023-03-11T03:48:23.875Z,0.00
2023-03-11T03:49:23.856Z,0.00
2023-03-11T03:50:23.851Z,0.00
2023-03-11T03:51:23.834Z,0.00
2023-03-11T03:52:23.835Z,0.00
2023-03-11T03:53:23.846Z,0.00
2023-03-11T03:54:23.806Z,0.00
2023-03-11T03:55:23.793Z,0.00
2023-03-11T03:56:23.794Z,0.00
2023-03-11T03:57:23.783Z,0.00
2023-03-11T03:58:23.778Z,0.00
2023-03-11T03:59:23.766Z,0.00
2023-03-11T04:00:23.751Z,0.00
2023-03-11T04:01:23.744Z,0.00
2023-03-11T04:02:23.775Z,0.00
2023-03-11T04:03:23.800Z,0.00
2023-03-11T04:04:23.719Z,0.00
2023-03-11T04:05:23.693Z,0.00
2023-03-11T04:06:23.688Z,0.00
2023-03-11T04:07:23.685Z,0.00
2023-03-11T04:08:23.672Z,0.00
2023-03-11T04:09:23.661Z,0.00
2023-03-11T04:10:23.647Z,0.00
2023-03-11T04:11:23.632Z,0.00
2023-03-11T04:12:23.632Z,0.00
2023-03-11T04:13:23.605Z,0.00
2023-03-11T04:14:23.607Z,0.00
2023-03-11T04:15:23.597Z,0.00
2023-03-11T04:16:23.740Z,0.00
2023-03-11T04:17:23.590Z,0.00
2023-03-11T04:18:23.566Z,0.00
2023-03-11T04:19:23.553Z,0.00
2023-03-11T04:20:23.542Z,0.00
2023-03-11T04:21:23.541Z,0.00
2023-03-11T04:22:23.570Z,0.00
2023-03-11T04:23:23.517Z,0.00
2023-03-11T04:24:23.505Z,0.00
2023-03-11T04:25:23.507Z,0.00
2023-03-11T04:26:23.491Z,0.00
2023-03-11T04:27:23.474Z,0.00
2023-03-11T04:28:23.476Z,0.00
2023-03-11T04:29:23.452Z,0.00
2023-03-11T04:30:23.443Z,0.00
2023-03-11T04:31:23.475Z,0.00
2023-03-11T04:32:23.458Z,0.00
2023-03-11T04:33:23.404Z,0.00
2023-03-11T04:34:23.401Z,0.00
2023-03-11T04:35:23.472Z,0.00
2023-03-11T04:36:23.378Z,0.00
2023-03-11T04:37:23.697Z,0.00
2023-03-11T04:38:23.353Z,0.00
2023-03-11T04:39:23.338Z,0.00
2023-03-11T04:40:23.340Z,0.00
2023-03-11T04:41:23.317Z,0.00
2023-03-11T04:42:23.636Z,0.00
2023-03-11T04:43:23.298Z,0.00
2023-03-11T04:44:23.292Z,0.00
2023-03-11T04:45:23.287Z,0.00
2023-03-11T04:46:23.316Z,0.00
2023-03-11T04:47:23.557Z,0.00
2023-03-11T04:48:23.260Z,0.00
2023-03-11T04:49:23.241Z,0.00
2023-03-11T04:50:23.239Z,0.00
2023-03-11T04:51:23.215Z,0.00
2023-03-11T04:52:23.708Z,0.00
2023-03-11T04:53:23.200Z,0.00
2023-03-11T04:54:23.197Z,0.00
2023-03-11T04:55:23.188Z,0.00
2023-03-11T04:56:23.176Z,0.00
2023-03-11T04:57:23.417Z,0.00
2023-03-11T04:58:23.151Z,0.00
2023-03-11T04:59:23.140Z,0.00
2023-03-11T05:00:23.142Z,0.00
2023-03-11T05:01:23.178Z,0.00
2023-03-11T05:02:23.124Z,0.00
2023-03-11T05:03:23.137Z,0.00
2023-03-11T05:04:23.149Z,0.00
2023-03-11T05:05:23.072Z,0.00
2023-03-11T05:06:23.071Z,0.00
2023-03-11T05:07:23.378Z,0.00
2023-03-11T05:08:23.050Z,0.00
2023-03-11T05:09:23.037Z,0.00
2023-03-11T05:10:23.015Z,0.00
2023-03-11T05:11:23.024Z,0.00
2023-03-11T05:12:23.383Z,0.00
2023-03-11T05:13:23.004Z,0.00
2023-03-11T05:14:22.936Z,0.00
2023-03-11T05:15:22.988Z,0.00
2023-03-11T05:16:23.049Z,0.00
2023-03-11T05:17:23.258Z,0.00
2023-03-11T05:18:22.885Z,0.00
2023-03-11T05:19:22.935Z,0.00
2023-03-11T05:20:22.888Z,0.00
2023-03-11T05:21:22.852Z,0.00
2023-03-11T05:22:23.241Z,0.00
2023-03-11T05:23:22.854Z,0.00
2023-03-11T05:24:22.818Z,0.00
2023-03-11T05:25:22.822Z,0.00
2023-03-11T05:26:22.813Z,0.00
2023-03-11T05:27:23.101Z,0.00
2023-03-11T05:28:22.772Z,0.00
2023-03-11T05:29:22.786Z,0.00
2023-03-11T05:30:22.752Z,0.00
2023-03-11T05:31:22.799Z,0.00
2023-03-11T05:32:23.097Z,0.00
2023-03-11T05:33:22.752Z,0.00
2023-03-11T05:34:22.717Z,0.00
2023-03-11T05:35:22.791Z,0.00
2023-03-11T05:36:22.711Z,0.00
2023-03-11T05:37:23.064Z,0.00
2023-03-11T05:38:22.689Z,0.00
2023-03-11T05:39:22.686Z,0.00
2023-03-11T05:40:22.662Z,0.00
2023-03-11T05:41:22.663Z,0.00
2023-03-11T05:42:23.094Z,0.00
2023-03-11T05:43:22.646Z,0.00
2023-03-11T05:44:22.633Z,0.00
2023-03-11T05:45:22.611Z,0.00
2023-03-11T05:46:22.645Z,0.00
2023-03-11T05:47:22.995Z,0.00
2023-03-11T05:48:22.588Z,0.00
2023-03-11T05:49:22.575Z,0.00
2023-03-11T05:50:22.582Z,0.00
2023-03-11T05:51:22.563Z,0.00
2023-03-11T05:52:22.856Z,5.62
2023-03-11T05:53:22.538Z,5.62
2023-03-11T05:54:22.511Z,5.62
2023-03-11T05:55:22.512Z,5.62
2023-03-11T05:56:22.499Z,5.62
2023-03-11T05:57:22.852Z,5.62
2023-03-11T05:58:22.508Z,5.62
2023-03-11T05:59:22.471Z,5.62
2023-03-11T06:00:22.452Z,5.62
2023-03-11T06:01:22.448Z,5.62
2023-03-11T06:02:22.787Z,5.62
2023-03-11T06:03:22.431Z,5.62
2023-03-11T06:04:22.515Z,5.62
2023-03-11T06:05:22.457Z,11.25
2023-03-11T06:06:22.392Z,11.25
2023-03-11T06:07:22.898Z,11.25
2023-03-11T06:08:22.370Z,11.25
2023-03-11T06:09:22.380Z,11.25
2023-03-11T06:10:22.359Z,11.25
2023-03-11T06:11:22.345Z,11.25
2023-03-11T06:12:22.593Z,11.25
2023-03-11T06:13:22.325Z,11.25
2023-03-11T06:14:22.319Z,11.25
2023-03-11T06:15:22.298Z,11.25
2023-03-11T06:16:22.361Z,11.25
2023-03-11T06:17:22.630Z,11.25
2023-03-11T06:18:22.279Z,11.25
2023-03-11T06:19:22.284Z,11.25
2023-03-11T06:20:22.257Z,11.25
2023-03-11T06:21:22.245Z,11.25
2023-03-11T06:22:22.550Z,11.25
2023-03-11T06:23:22.223Z,11.25
2023-03-11T06:24:22.207Z,11.25
2023-03-11T06:25:22.198Z,11.25
2023-03-11T06:26:22.186Z,11.25
2023-03-11T06:27:22.522Z,11.25
2023-03-11T06:28:22.165Z,11.25
2023-03-11T06:29:22.161Z,11.25
2023-03-11T06:30:22.144Z,11.25
2023-03-11T06:31:22.190Z,11.25
2023-03-11T06:32:22.187Z,11.25
2023-03-11T06:33:22.139Z,11.25
2023-03-11T06:34:22.131Z,11.25
2023-03-11T06:35:22.105Z,11.25
2023-03-11T06:36:22.087Z,16.88
2023-03-11T06:37:22.072Z,16.88
2023-03-11T06:38:22.062Z,16.88
2023-03-11T06:39:22.048Z,16.88
2023-03-11T06:40:22.035Z,16.88
2023-03-11T06:41:22.041Z,16.88
2023-03-11T06:42:22.011Z,16.88
2023-03-11T06:43:22.041Z,16.88
2023-03-11T06:44:22.006Z,16.88
2023-03-11T06:45:21.997Z,22.50
2023-03-11T06:46:21.975Z,22.50
2023-03-11T06:47:21.967Z,28.12
2023-03-11T06:48:21.969Z,28.12
2023-03-11T06:49:21.953Z,33.75
2023-03-11T06:50:21.940Z,39.38
2023-03-11T06:51:21.932Z,39.38
2023-03-11T06:52:21.911Z,45.00
2023-03-11T06:53:21.914Z,50.62
2023-03-11T06:54:21.897Z,56.25
2023-03-11T06:55:21.888Z,61.88
2023-03-11T06:56:21.880Z,61.88
2023-03-11T06:57:21.877Z,61.88
2023-03-11T06:58:21.850Z,61.88
2023-03-11T06:59:21.849Z,61.88
2023-03-11T07:00:21.841Z,61.88
2023-03-11T07:01:21.847Z,61.88
2023-03-11T07:02:21.825Z,61.88
2023-03-11T07:03:21.811Z,61.88
2023-03-11T07:04:21.814Z,61.88
2023-03-11T07:05:21.787Z,67.50
2023-03-11T07:06:21.775Z,67.50
2023-03-11T07:07:21.775Z,67.50
2023-03-11T07:08:21.749Z,67.50
2023-03-11T07:09:21.745Z,73.12
2023-03-11T07:10:21.726Z,73.12
2023-03-11T07:11:21.733Z,78.75
2023-03-11T07:12:21.705Z,90.00
2023-03-11T07:13:21.713Z,101.25
2023-03-11T07:14:21.724Z,174.38
2023-03-11T07:15:21.689Z,157.50
2023-03-11T07:16:21.717Z,320.62
2023-03-11T07:17:21.660Z,410.62
2023-03-11T07:18:21.654Z,399.38
2023-03-11T07:19:22.116Z,331.88
2023-03-11T07:20:21.627Z,444.38
2023-03-11T07:21:21.621Z,376.88
2023-03-11T07:22:21.624Z,315.00
2023-03-11T07:23:21.803Z,489.38
2023-03-11T07:24:21.590Z,472.50
2023-03-11T07:25:21.583Z,230.62
2023-03-11T07:26:21.560Z,185.62
2023-03-11T07:27:21.564Z,180.00
2023-03-11T07:28:21.545Z,185.62
2023-03-11T07:29:21.537Z,202.50
2023-03-11T07:30:21.545Z,213.75
2023-03-11T07:31:21.568Z,208.12
2023-03-11T07:32:21.607Z,225.00
2023-03-11T07:33:21.537Z,225.00
2023-03-11T07:34:21.482Z,191.25
2023-03-11T07:35:21.483Z,196.88
2023-03-11T07:36:21.945Z,208.12
2023-03-11T07:37:21.470Z,236.25
2023-03-11T07:38:21.448Z,202.50
2023-03-11T07:39:21.451Z,185.62
2023-03-11T07:40:21.417Z,213.75
2023-03-11T07:41:21.902Z,202.50
2023-03-11T07:42:21.912Z,202.50
2023-03-11T07:43:21.737Z,180.00
2023-03-11T07:44:21.378Z,202.50
2023-03-11T07:45:21.384Z,174.38
2023-03-11T07:46:21.949Z,168.75
2023-03-11T07:47:21.369Z,168.75
2023-03-11T07:48:21.702Z,202.50
2023-03-11T07:49:21.333Z,168.75
2023-03-11T07:50:21.313Z,174.38
2023-03-11T07:51:21.312Z,191.25
2023-03-11T07:52:21.304Z,174.38
2023-03-11T07:53:21.608Z,174.38
2023-03-11T07:54:21.284Z,157.50
2023-03-11T07:55:21.289Z,151.88
2023-03-11T07:56:21.267Z,157.50
2023-03-11T07:57:21.253Z,168.75
2023-03-11T07:58:21.711Z,180.00
2023-03-11T07:59:21.242Z,225.00
2023-03-11T08:00:21.216Z,213.75
2023-03-11T08:01:21.211Z,230.62
2023-03-11T08:02:21.245Z,236.25
2023-03-11T08:03:21.487Z,180.00
2023-03-11T08:04:21.176Z,146.25
2023-03-11T08:05:21.174Z,146.25
2023-03-11T08:06:21.152Z,151.88
2023-03-11T08:07:21.154Z,157.50
2023-03-11T08:08:21.644Z,174.38
2023-03-11T08:09:21.128Z,185.62
2023-03-11T08:10:21.109Z,180.00
2023-03-11T08:11:21.110Z,168.75
2023-03-11T08:12:21.095Z,174.38
2023-03-11T08:13:21.264Z,163.12
2023-03-11T08:14:21.079Z,157.50
2023-03-11T08:15:21.062Z,151.88
2023-03-11T08:16:21.047Z,146.25
2023-03-11T08:17:21.039Z,146.25
2023-03-11T08:18:21.353Z,146.25
2023-03-11T08:19:21.032Z,140.62
2023-03-11T08:20:21.013Z,140.62
2023-03-11T08:21:21.007Z,140.62
2023-03-11T08:22:20.996Z,135.00
2023-03-11T08:23:21.004Z,129.38
2023-03-11T08:24:21.020Z,129.38
2023-03-11T08:25:20.961Z,135.00
2023-03-11T08:26:20.952Z,140.62
2023-03-11T08:27:20.942Z,146.25
2023-03-11T08:28:21.145Z,146.25
2023-03-11T08:29:20.924Z,146.25
2023-03-11T08:30:20.909Z,146.25
2023-03-11T08:31:20.929Z,146.25
2023-03-11T08:32:20.944Z,146.25
2023-03-11T08:33:21.149Z,146.25
2023-03-11T08:34:20.871Z,146.25
2023-03-11T08:35:20.860Z,146.25
2023-03-11T08:36:20.839Z,140.62
2023-03-11T08:37:23.383Z,135.00
2023-03-11T08:38:21.002Z,129.38
2023-03-11T08:39:20.818Z,123.75
2023-03-11T08:40:20.799Z,118.12
2023-03-11T08:41:20.794Z,118.12
2023-03-11T08:42:20.792Z,118.12
2023-03-11T08:43:21.092Z,118.12
2023-03-11T08:44:20.770Z,123.75
2023-03-11T08:45:20.759Z,129.38
2023-03-11T08:46:20.785Z,129.38
2023-03-11T08:47:20.739Z,123.75
2023-03-11T08:48:21.166Z,129.38
2023-03-11T08:49:20.714Z,129.38
2023-03-11T08:50:20.709Z,129.38
2023-03-11T08:51:20.706Z,135.00
2023-03-11T08:52:20.712Z,135.00
2023-03-11T08:53:21.097Z,135.00
2023-03-11T08:54:20.652Z,140.62
2023-03-11T08:55:20.658Z,146.25
2023-03-11T08:56:20.628Z,146.25
2023-03-11T08:57:20.626Z,151.88
2023-03-11T08:58:20.639Z,157.50
2023-03-11T08:59:20.612Z,157.50
2023-03-11T09:00:20.588Z,157.50
2023-03-11T09:01:20.719Z,157.50
2023-03-11T09:02:20.602Z,157.50
2023-03-11T09:03:20.583Z,163.12
2023-03-11T09:04:20.562Z,163.12
2023-03-11T09:05:20.558Z,163.12
2023-03-11T09:06:20.540Z,157.50
2023-03-11T09:07:20.534Z,151.88
2023-03-11T09:08:20.835Z,146.25
2023-03-11T09:09:20.505Z,140.62
2023-03-11T09:10:20.490Z,135.00
2023-03-11T09:11:20.481Z,135.00
2023-03-11T09:12:20.474Z,146.25
2023-03-11T09:13:20.699Z,140.62
2023-03-11T09:14:20.444Z,140.62
2023-03-11T09:15:20.465Z,140.62
2023-03-11T09:16:20.452Z,140.62
2023-03-11T09:17:20.423Z,140.62
2023-03-11T09:18:20.727Z,140.62
2023-03-11T09:19:20.400Z,140.62
2023-03-11T09:20:20.390Z,146.25
2023-03-11T09:21:20.389Z,151.88
2023-03-11T09:22:20.368Z,151.88
2023-03-11T09:23:20.374Z,163.12
2023-03-11T09:24:20.347Z,168.75
2023-03-11T09:25:20.334Z,168.75
2023-03-11T09:26:20.342Z,174.38
2023-03-11T09:27:20.313Z,180.00
2023-03-11T09:28:20.646Z,174.38
2023-03-11T09:29:20.291Z,174.38
2023-03-11T09:30:20.288Z,168.75
2023-03-11T09:31:20.318Z,163.12
2023-03-11T09:32:20.286Z,157.50
2023-03-11T09:33:20.591Z,151.88
2023-03-11T09:34:20.246Z,151.88
2023-03-11T09:35:20.231Z,151.88
2023-03-11T09:36:20.226Z,146.25
2023-03-11T09:37:20.215Z,146.25
2023-03-11T09:38:20.486Z,146.25
2023-03-11T09:39:20.188Z,146.25
2023-03-11T09:40:20.183Z,146.25
2023-03-11T09:41:20.185Z,146.25
2023-03-11T09:42:20.174Z,151.88
2023-03-11T09:43:20.452Z,157.50
2023-03-11T09:44:20.148Z,163.12
2023-03-11T09:45:20.129Z,163.12
2023-03-11T09:46:20.141Z,163.12
2023-03-11T09:47:20.110Z,168.75
2023-03-11T09:48:22.659Z,168.75
2023-03-11T09:49:20.091Z,163.12
2023-03-11T09:50:20.087Z,163.12
2023-03-11T09:51:20.412Z,163.12
2023-03-11T09:52:20.060Z,168.75
2023-03-11T09:53:20.046Z,163.12
2023-03-11T09:54:20.040Z,163.12
2023-03-11T09:55:20.024Z,163.12
2023-03-11T09:56:20.195Z,163.12
2023-03-11T09:57:20.006Z,168.75
2023-03-11T09:58:20.004Z,168.75
2023-03-11T09:59:19.990Z,168.75
2023-03-11T10:00:19.976Z,168.75
2023-03-11T10:01:19.966Z,168.75
2023-03-11T10:02:20.091Z,168.75
2023-03-11T10:03:19.994Z,174.38
2023-03-11T10:04:19.939Z,180.00
2023-03-11T10:05:19.938Z,185.62
2023-03-11T10:06:19.915Z,185.62
2023-03-11T10:07:19.897Z,191.25
2023-03-11T10:08:19.890Z,191.25
2023-03-11T10:09:19.918Z,191.25
2023-03-11T10:10:19.881Z,196.88
2023-03-11T10:11:19.884Z,191.25
2023-03-11T10:12:19.859Z,191.25
2023-03-11T10:13:19.837Z,191.25
2023-03-11T10:14:19.937Z,191.25
2023-03-11T10:15:19.815Z,196.88
2023-03-11T10:16:20.106Z,202.50
2023-03-11T10:17:19.794Z,202.50
2023-03-11T10:18:19.798Z,202.50
2023-03-11T10:19:19.773Z,196.88
2023-03-11T10:20:19.771Z,202.50
2023-03-11T10:21:19.998Z,213.75
2023-03-11T10:22:19.748Z,196.88
2023-03-11T10:23:19.735Z,191.25
2023-03-11T10:24:19.733Z,185.62
2023-03-11T10:25:19.722Z,174.38
2023-03-11T10:26:19.704Z,180.00
2023-03-11T10:27:19.705Z,185.62
2023-03-11T10:28:19.684Z,185.62
2023-03-11T10:29:20.156Z,185.62
2023-03-11T10:30:19.665Z,180.00
2023-03-11T10:31:19.672Z,180.00
2023-03-11T10:32:19.736Z,180.00
2023-03-11T10:33:19.627Z,180.00
2023-03-11T10:34:19.627Z,180.00
2023-03-11T10:35:19.616Z,174.38
2023-03-11T10:36:19.604Z,168.75
2023-03-11T10:37:19.604Z,168.75
2023-03-11T10:38:19.586Z,168.75
2023-03-11T10:39:19.849Z,163.12
2023-03-11T10:40:20.045Z,163.12
2023-03-11T10:41:19.551Z,157.50
2023-03-11T10:42:19.541Z,151.88
2023-03-11T10:43:19.578Z,151.88
2023-03-11T10:44:19.844Z,157.50
2023-03-11T10:45:19.507Z,157.50
2023-03-11T10:46:19.556Z,151.88
2023-03-11T10:47:19.489Z,151.88
2023-03-11T10:48:19.482Z,168.75
2023-03-11T10:49:19.743Z,135.00
2023-03-11T10:50:19.553Z,157.50
2023-03-11T10:51:19.441Z,123.75
2023-03-11T10:52:19.451Z,135.00
2023-03-11T10:53:19.427Z,140.62
2023-03-11T10:54:19.763Z,151.88
2023-03-11T10:55:19.403Z,163.12
2023-03-11T10:56:19.405Z,174.38
2023-03-11T10:57:19.391Z,180.00
2023-03-11T10:58:19.380Z,191.25
2023-03-11T10:59:19.701Z,202.50
2023-03-11T11:00:19.417Z,196.88
2023-03-11T11:01:19.409Z,219.38
2023-03-11T11:02:19.344Z,185.62
2023-03-11T11:03:19.322Z,236.25
2023-03-11T11:04:19.633Z,241.88
2023-03-11T11:05:19.310Z,185.62
2023-03-11T11:06:19.303Z,174.38
2023-03-11T11:07:19.286Z,168.75
2023-03-11T11:08:19.335Z,168.75
2023-03-11T11:09:20.114Z,213.75
2023-03-11T11:10:19.297Z,146.25
2023-03-11T11:11:19.256Z,135.00
2023-03-11T11:12:19.248Z,123.75
2023-03-11T11:13:19.244Z,140.62
2023-03-11T11:14:19.597Z,112.50
2023-03-11T11:15:19.205Z,112.50
2023-03-11T11:16:19.227Z,106.88
2023-03-11T11:17:19.217Z,106.88
2023-03-11T11:18:19.186Z,112.50
2023-03-11T11:19:19.746Z,112.50
2023-03-11T11:20:19.401Z,106.88
2023-03-11T11:21:19.139Z,106.88
2023-03-11T11:22:19.139Z,112.50
2023-03-11T11:23:19.125Z,129.38
2023-03-11T11:24:19.148Z,140.62
2023-03-11T11:25:19.133Z,151.88
2023-03-11T11:26:19.098Z,157.50
2023-03-11T11:27:19.088Z,157.50
2023-03-11T11:28:19.081Z,196.88
2023-03-11T11:29:19.072Z,163.12
2023-03-11T11:30:19.106Z,157.50
2023-03-11T11:31:19.134Z,140.62
2023-03-11T11:32:19.252Z,135.00
2023-03-11T11:33:19.017Z,129.38
2023-03-11T11:34:20.900Z,123.75
2023-03-11T11:35:19.095Z,118.12
2023-03-11T11:36:19.001Z,112.50
2023-03-11T11:37:18.992Z,112.50
2023-03-11T11:38:18.972Z,106.88
2023-03-11T11:39:18.990Z,106.88
2023-03-11T11:40:18.974Z,106.88
2023-03-11T11:41:18.935Z,118.12
2023-03-11T11:42:18.928Z,123.75
2023-03-11T11:43:18.916Z,135.00
2023-03-11T11:44:18.932Z,140.62
2023-03-11T11:45:18.901Z,151.88
2023-03-11T11:46:18.912Z,163.12
2023-03-11T11:47:18.901Z,168.75
2023-03-11T11:48:18.862Z,168.75
2023-03-11T11:49:18.870Z,180.00
2023-03-11T11:50:18.846Z,174.38
2023-03-11T11:51:18.832Z,180.00
2023-03-11T11:52:18.828Z,185.62
2023-03-11T11:53:18.830Z,185.62
2023-03-11T11:54:18.836Z,185.62
2023-03-11T11:55:18.794Z,185.62
2023-03-11T11:56:18.789Z,180.00
2023-03-11T11:57:18.789Z,180.00
2023-03-11T11:58:18.767Z,185.62
2023-03-11T11:59:18.809Z,180.00
2023-03-11T12:00:18.741Z,219.38
2023-03-11T12:01:18.725Z,168.75
2023-03-11T12:02:18.723Z,157.50
2023-03-11T12:03:18.732Z,151.88
2023-03-11T12:04:19.045Z,157.50
2023-03-11T12:05:18.707Z,157.50
2023-03-11T12:06:18.677Z,196.88
2023-03-11T12:07:18.668Z,196.88
2023-03-11T12:08:18.657Z,202.50
2023-03-11T12:09:18.994Z,185.62
2023-03-11T12:10:23.183Z,140.62
2023-03-11T12:11:18.690Z,140.62
2023-03-11T12:12:18.616Z,140.62
2023-03-11T12:13:18.591Z,140.62
2023-03-11T12:14:18.908Z,135.00
2023-03-11T12:15:18.632Z,135.00
2023-03-11T12:16:18.662Z,135.00
2023-03-11T12:17:18.558Z,146.25
2023-03-11T12:18:18.558Z,151.88
2023-03-11T12:19:18.909Z,151.88
2023-03-11T12:20:18.546Z,146.25
2023-03-11T12:21:18.525Z,151.88
2023-03-11T12:22:18.521Z,157.50
2023-03-11T12:23:18.502Z,163.12
2023-03-11T12:24:18.907Z,174.38
2023-03-11T12:25:18.480Z,174.38
2023-03-11T12:26:18.516Z,196.88
2023-03-11T12:27:18.601Z,230.62
2023-03-11T12:28:18.467Z,230.62
2023-03-11T12:29:19.837Z,230.62
2023-03-11T12:30:18.434Z,225.00
2023-03-11T12:31:18.440Z,230.62
2023-03-11T12:32:18.462Z,185.62
2023-03-11T12:33:18.395Z,219.38
2023-03-11T12:34:18.740Z,174.38
2023-03-11T12:35:18.390Z,163.12
2023-03-11T12:36:18.393Z,157.50
2023-03-11T12:37:18.347Z,157.50
2023-03-11T12:38:18.358Z,163.12
2023-03-11T12:39:18.644Z,163.12
2023-03-11T12:40:18.321Z,196.88
2023-03-11T12:41:20.854Z,196.88
2023-03-11T12:42:18.304Z,191.25
2023-03-11T12:43:18.297Z,185.62
2023-03-11T12:44:18.306Z,185.62
2023-03-11T12:45:18.265Z,174.38
2023-03-11T12:46:18.324Z,174.38
2023-03-11T12:47:18.245Z,168.75
2023-03-11T12:48:18.245Z,123.75
2023-03-11T12:49:18.236Z,129.38
2023-03-11T12:50:18.243Z,157.50
2023-03-11T12:51:18.198Z,146.25
2023-03-11T12:52:18.209Z,168.75
2023-03-11T12:53:18.176Z,129.38